createdAt,value
2024-02-07T00:00:40.339Z,12.18
2024-02-07T00:03:07.549Z,10.05
2024-02-07T00:05:35.020Z,9.90
2024-02-07T00:08:02.507Z,10.57
2024-02-07T00:10:29.846Z,13.77
2024-02-07T00:12:57.090Z,10.07
2024-02-07T00:15:24.621Z,13.35
2024-02-07T00:17:51.927Z,10.25
2024-02-07T00:20:19.476Z,12.82
2024-02-07T00:22:46.777Z,11.98
2024-02-07T00:25:14.136Z,8.50
2024-02-07T00:27:41.398Z,9.43
2024-02-07T00:30:09.061Z,11.00
2024-02-07T00:32:36.588Z,10.85
2024-02-07T00:35:04.154Z,10.57
2024-02-07T00:37:31.463Z,9.80
2024-02-07T00:39:58.636Z,11.45
2024-02-07T00:42:26.188Z,9.63
2024-02-07T00:44:53.313Z,8.38
2024-02-07T00:47:20.825Z,9.95
2024-02-07T00:49:48.170Z,12.07
2024-02-07T00:52:15.409Z,13.68
2024-02-07T00:54:42.594Z,11.07
2024-02-07T00:57:09.796Z,9.73
2024-02-07T00:59:36.934Z,8.00
2024-02-07T01:02:04.624Z,7.00
2024-02-07T01:04:32.045Z,7.75
2024-02-07T01:06:59.246Z,12.85
2024-02-07T01:09:29.826Z,8.25
2024-02-07T01:11:57.048Z,7.05
2024-02-07T01:14:24.255Z,8.15
2024-02-07T01:16:51.455Z,10.18
2024-02-07T01:19:19.306Z,9.45
2024-02-07T01:21:46.669Z,10.88
2024-02-07T01:24:13.852Z,7.45
2024-02-07T01:26:42.045Z,8.63
2024-02-07T01:29:09.232Z,8.18
2024-02-07T01:31:36.697Z,7.63
2024-02-07T01:34:04.183Z,7.40
2024-02-07T01:36:31.950Z,8.43
2024-02-07T01:39:00.196Z,13.27
2024-02-07T01:41:28.815Z,9.18
2024-02-07T01:43:55.995Z,9.50
2024-02-07T01:46:23.296Z,10.77
2024-02-07T01:48:51.157Z,10.30
2024-02-07T01:51:20.855Z,10.23
2024-02-07T01:53:48.974Z,8.98
2024-02-07T01:56:17.617Z,10.38
2024-02-07T01:58:45.649Z,9.38
2024-02-07T02:01:13.007Z,9.75
2024-02-07T02:03:40.446Z,7.82
2024-02-07T02:06:07.759Z,10.43
2024-02-07T02:08:35.127Z,10.00
2024-02-07T02:11:05.645Z,10.70
2024-02-07T02:13:33.481Z,10.85
2024-02-07T02:16:01.179Z,9.57
2024-02-07T02:18:28.428Z,8.75
2024-02-07T02:20:55.875Z,9.52
2024-02-07T02:23:44.186Z,8.15
2024-02-07T02:26:34.275Z,8.85
2024-02-07T02:29:10.390Z,10.02
2024-02-07T02:31:38.113Z,9.75
2024-02-07T02:34:06.937Z,8.98
2024-02-07T02:36:34.469Z,6.82
2024-02-07T02:39:01.658Z,11.13
2024-02-07T02:41:28.821Z,11.32
2024-02-07T02:43:56.384Z,9.75
2024-02-07T02:46:23.685Z,11.05
2024-02-07T02:48:51.074Z,10.65
2024-02-07T02:51:18.320Z,8.68
2024-02-07T02:53:45.522Z,9.85
2024-02-07T02:56:13.560Z,11.80
2024-02-07T02:58:44.182Z,9.85
2024-02-07T03:03:42.772Z,8.55
2024-02-07T03:06:20.448Z,10.40
2024-02-07T03:08:56.146Z,11.90
2024-02-07T03:11:24.550Z,10.02
2024-02-07T03:13:52.585Z,8.65
2024-02-07T03:16:20.417Z,7.88
2024-02-07T03:18:47.834Z,8.05
2024-02-07T03:21:15.613Z,8.98
2024-02-07T03:23:42.926Z,9.07
2024-02-07T03:26:10.924Z,8.10
2024-02-07T03:28:38.707Z,9.68
2024-02-07T03:31:06.680Z,8.77
2024-02-07T03:33:34.323Z,9.25
2024-02-07T03:36:01.660Z,10.38
2024-02-07T03:38:31.635Z,7.75
2024-02-07T03:40:58.934Z,9.18
2024-02-07T03:43:28.332Z,7.40
2024-02-07T03:45:55.642Z,11.50
2024-02-07T03:48:25.288Z,6.85
2024-02-07T03:50:52.962Z,9.13
2024-02-07T03:53:20.701Z,8.35
2024-02-07T03:55:49.601Z,9.00
2024-02-07T03:58:17.207Z,7.25
2024-02-07T04:00:45.056Z,6.68
2024-02-07T04:03:13.396Z,9.05
2024-02-07T04:05:41.099Z,8.20
2024-02-07T04:08:08.941Z,7.97
2024-02-07T04:10:43.355Z,6.68
2024-02-07T04:13:11.991Z,8.10
2024-02-07T04:15:58.159Z,6.53
2024-02-07T04:18:44.308Z,7.15
2024-02-07T04:21:30.449Z,10.68
2024-02-07T04:24:16.403Z,5.95
2024-02-07T04:27:02.463Z,7.22
2024-02-07T04:29:48.591Z,8.70
2024-02-07T04:32:34.729Z,8.57
2024-02-07T04:35:21.880Z,8.27
2024-02-07T04:38:07.882Z,10.88
2024-02-07T04:40:54.074Z,9.10
2024-02-07T04:43:39.876Z,6.93
2024-02-07T04:46:25.998Z,6.93
2024-02-07T04:49:12.117Z,8.13
2024-02-07T04:51:58.190Z,7.40
2024-02-07T04:54:44.295Z,7.13
2024-02-07T04:57:30.565Z,8.02
2024-02-07T05:00:16.327Z,7.25
2024-02-07T05:03:02.507Z,6.95
2024-02-07T05:05:48.553Z,7.95
2024-02-07T05:08:34.499Z,8.00
2024-02-07T05:11:20.365Z,7.40
2024-02-07T05:14:06.540Z,9.13
2024-02-07T05:16:33.829Z,7.25
2024-02-07T05:19:03.327Z,10.98
2024-02-07T05:21:31.340Z,9.30
2024-02-07T05:23:58.580Z,10.18
2024-02-07T05:26:25.742Z,10.00
2024-02-07T05:28:53.090Z,12.27
2024-02-07T05:31:20.347Z,10.68
2024-02-07T05:33:47.743Z,10.77
2024-02-07T05:36:15.038Z,11.13
2024-02-07T05:38:42.227Z,8.63
2024-02-07T05:41:09.444Z,9.77
2024-02-07T05:43:36.697Z,9.73
2024-02-07T05:46:04.620Z,10.35
2024-02-07T05:48:31.968Z,7.60
2024-02-07T05:50:59.375Z,8.25
2024-02-07T05:53:26.544Z,7.97
2024-02-07T05:55:53.773Z,8.57
2024-02-07T05:58:24.354Z,8.85
2024-02-07T06:00:51.745Z,6.97
2024-02-07T06:03:18.960Z,8.48
2024-02-07T06:05:46.272Z,7.10
2024-02-07T06:08:13.691Z,7.53
2024-02-07T06:10:42.810Z,7.15
2024-02-07T06:13:10.069Z,7.28
2024-02-07T06:15:37.871Z,8.10
2024-02-07T06:18:05.160Z,9.98
2024-02-07T06:20:32.524Z,8.25
2024-02-07T06:22:59.892Z,9.13
2024-02-07T06:25:28.169Z,7.13
2024-02-07T06:27:55.567Z,9.95
2024-02-07T06:30:24.344Z,7.10
2024-02-07T06:32:51.642Z,5.15
2024-02-07T06:35:19.058Z,6.07
2024-02-07T06:37:46.466Z,8.10
2024-02-07T06:40:13.702Z,7.40
2024-02-07T06:42:41.100Z,7.45
2024-02-07T06:45:08.583Z,7.30
2024-02-07T06:47:35.836Z,6.07
2024-02-07T06:50:03.228Z,7.70
2024-02-07T06:52:30.592Z,7.75
2024-02-07T06:54:57.820Z,7.85
2024-02-07T06:57:25.145Z,5.88
2024-02-07T06:59:52.404Z,8.75
2024-02-07T07:02:19.595Z,6.70
2024-02-07T07:04:46.854Z,7.70
2024-02-07T07:07:14.078Z,7.35
2024-02-07T07:09:41.245Z,8.55
2024-02-07T07:12:08.610Z,5.47
2024-02-07T07:14:41.960Z,5.78
2024-02-07T07:17:09.897Z,6.40
2024-02-07T07:19:37.447Z,6.65
2024-02-07T07:22:04.696Z,7.75
2024-02-07T07:24:31.888Z,5.07
2024-02-07T07:27:02.583Z,5.55
2024-02-07T07:29:30.107Z,8.85
2024-02-07T07:31:59.013Z,5.93
2024-02-07T07:34:26.318Z,8.18
2024-02-07T07:36:53.722Z,6.43
2024-02-07T07:39:21.157Z,7.15
2024-02-07T07:41:48.287Z,6.57
2024-02-07T07:44:15.399Z,6.25
2024-02-07T07:46:42.719Z,4.72
2024-02-07T07:49:09.877Z,5.50
2024-02-07T07:51:37.126Z,6.40
2024-02-07T07:54:04.343Z,5.38
2024-02-07T07:56:32.938Z,5.47
2024-02-07T07:59:00.250Z,6.65
2024-02-07T08:01:28.907Z,7.15
2024-02-07T08:03:56.651Z,6.15
2024-02-07T08:06:24.088Z,5.93
2024-02-07T08:08:51.853Z,5.68
2024-02-07T08:11:19.061Z,5.63
2024-02-07T08:13:46.249Z,6.53
2024-02-07T08:16:13.857Z,6.30
2024-02-07T08:18:41.201Z,8.02
2024-02-07T08:21:09.643Z,6.55
2024-02-07T08:23:36.867Z,5.18
2024-02-07T08:26:04.682Z,6.68
2024-02-07T08:28:32.021Z,8.20
2024-02-07T08:30:59.264Z,6.35
2024-02-07T08:33:26.606Z,6.22
2024-02-07T08:35:53.939Z,7.03
2024-02-07T08:38:21.221Z,6.35
2024-02-07T08:40:48.736Z,7.88
2024-02-07T08:43:15.965Z,6.07
2024-02-07T08:45:43.870Z,7.10
2024-02-07T08:48:11.229Z,5.85
2024-02-07T08:50:38.467Z,5.43
2024-02-07T08:53:05.904Z,6.60
2024-02-07T08:55:33.074Z,7.07
2024-02-07T08:58:00.557Z,7.40
2024-02-07T09:00:27.893Z,6.18
2024-02-07T09:02:55.881Z,6.30
2024-02-07T09:05:23.564Z,9.60
2024-02-07T09:07:51.302Z,8.77
2024-02-07T09:10:19.176Z,5.80
2024-02-07T09:12:46.432Z,9.38
2024-02-07T09:15:13.725Z,4.53
2024-02-07T09:17:40.919Z,6.95
2024-02-07T09:20:08.507Z,7.40
2024-02-07T09:22:35.897Z,5.93
2024-02-07T09:25:03.132Z,5.47
2024-02-07T09:27:32.233Z,6.82
2024-02-07T09:30:07.770Z,7.93
2024-02-07T09:32:43.467Z,9.30
2024-02-07T09:35:11.370Z,6.22
2024-02-07T09:37:42.929Z,5.60
2024-02-07T09:40:10.689Z,6.78
2024-02-07T09:42:40.642Z,6.47
2024-02-07T09:45:08.248Z,9.57
2024-02-07T09:47:39.544Z,6.63
2024-02-07T09:50:10.284Z,6.43
2024-02-07T09:52:38.433Z,8.23
2024-02-07T09:55:06.007Z,6.18
2024-02-07T09:57:34.174Z,6.13
2024-02-07T10:00:07.562Z,10.32
2024-02-07T10:02:37.921Z,5.95
2024-02-07T10:05:09.933Z,6.47
2024-02-07T10:07:37.600Z,6.82
2024-02-07T10:10:05.337Z,6.13
2024-02-07T10:12:32.489Z,6.10
2024-02-07T10:15:00.633Z,6.07
2024-02-07T10:17:27.965Z,7.53
2024-02-07T10:19:55.565Z,6.28
2024-02-07T10:22:22.953Z,4.60
2024-02-07T10:24:50.240Z,8.60
2024-02-07T10:27:18.870Z,5.10
2024-02-07T10:29:46.081Z,7.55
2024-02-07T10:32:17.335Z,5.80
2024-02-07T10:37:11.661Z,7.35
2024-02-07T10:39:38.878Z,10.02
2024-02-07T10:42:10.055Z,6.97
2024-02-07T10:44:37.649Z,7.20
2024-02-07T10:47:07.348Z,7.50
2024-02-07T10:49:34.674Z,7.88
2024-02-07T10:52:02.730Z,5.90
2024-02-07T10:54:30.845Z,7.28
2024-02-07T10:56:59.059Z,6.53
2024-02-07T10:59:27.542Z,7.63
2024-02-07T11:01:55.315Z,7.20
2024-02-07T11:04:23.922Z,9.30
2024-02-07T11:06:52.094Z,8.75
2024-02-07T11:09:19.330Z,9.73
2024-02-07T11:11:47.667Z,10.10
2024-02-07T11:14:15.317Z,8.90
2024-02-07T11:16:42.559Z,7.18
2024-02-07T11:19:09.853Z,6.63
2024-02-07T11:21:39.206Z,6.60
2024-02-07T11:24:08.277Z,8.32
2024-02-07T11:26:35.954Z,6.68
2024-02-07T11:29:07.616Z,7.32
2024-02-07T11:31:35.388Z,8.13
2024-02-07T11:34:02.675Z,7.22
2024-02-07T11:36:30.467Z,6.43
2024-02-07T11:38:59.854Z,7.25
2024-02-07T11:41:28.760Z,6.47
2024-02-07T11:44:07.874Z,8.98
2024-02-07T11:46:35.596Z,7.85
2024-02-07T11:49:02.827Z,8.57
2024-02-07T11:51:30.157Z,7.40
2024-02-07T11:54:00.469Z,8.15
2024-02-07T11:56:28.663Z,7.00
2024-02-07T11:58:56.516Z,6.00
2024-02-07T12:01:24.780Z,5.35
2024-02-07T12:03:58.979Z,9.18
2024-02-07T12:06:26.585Z,7.00
2024-02-07T12:08:54.615Z,8.40
2024-02-07T12:11:21.967Z,7.20
2024-02-07T12:13:49.342Z,7.15
2024-02-07T12:16:18.482Z,8.25
2024-02-07T12:18:46.049Z,8.68
2024-02-07T12:21:13.520Z,9.25
2024-02-07T12:23:40.869Z,5.65
2024-02-07T12:26:08.243Z,7.60
2024-02-07T12:28:35.644Z,6.55
2024-02-07T12:31:03.085Z,8.93
2024-02-07T12:33:31.382Z,6.43
2024-02-07T12:36:00.583Z,5.90
2024-02-07T12:38:28.219Z,7.60
2024-02-07T12:40:56.529Z,7.53
2024-02-07T12:43:25.841Z,8.73
2024-02-07T12:45:54.356Z,7.63
2024-02-07T12:48:23.791Z,7.00
2024-02-07T12:50:51.946Z,7.60
2024-02-07T12:53:19.255Z,8.25
2024-02-07T12:55:49.983Z,6.65
2024-02-07T12:58:17.941Z,7.60
2024-02-07T13:00:45.484Z,6.53
2024-02-07T13:03:13.618Z,7.03
2024-02-07T13:05:41.483Z,8.10
2024-02-07T13:08:13.258Z,6.50
2024-02-07T13:10:41.251Z,7.45
2024-02-07T13:13:08.742Z,10.48
2024-02-07T13:15:35.932Z,6.15
2024-02-07T13:18:04.068Z,7.70
2024-02-07T13:20:31.850Z,6.57
2024-02-07T13:22:59.661Z,6.10
2024-02-07T13:25:27.504Z,5.85
2024-02-07T13:27:54.761Z,7.15
2024-02-07T13:30:21.980Z,5.82
2024-02-07T13:32:49.267Z,6.93
2024-02-07T13:35:20.216Z,7.70
2024-02-07T13:37:47.628Z,6.82
2024-02-07T13:40:15.085Z,7.10
2024-02-07T13:42:42.289Z,7.93
2024-02-07T13:45:09.596Z,9.02
2024-02-07T13:47:37.482Z,5.97
2024-02-07T13:50:04.809Z,9.57
2024-02-07T13:52:32.040Z,8.50
2024-02-07T13:54:59.305Z,6.65
2024-02-07T13:57:26.499Z,8.27
2024-02-07T13:59:53.739Z,7.63
2024-02-07T14:02:21.172Z,5.32
2024-02-07T14:04:48.728Z,6.30
2024-02-07T14:07:16.099Z,6.97
2024-02-07T14:09:43.502Z,6.65
2024-02-07T14:12:10.642Z,5.82
2024-02-07T14:14:38.045Z,5.07
2024-02-07T14:17:05.387Z,8.35
2024-02-07T14:19:32.687Z,7.95
2024-02-07T14:22:02.052Z,6.35
2024-02-07T14:24:31.506Z,7.90
2024-02-07T14:26:58.736Z,8.02
2024-02-07T14:29:25.887Z,4.93
2024-02-07T14:31:53.294Z,5.72
2024-02-07T14:34:20.643Z,6.32
2024-02-07T14:36:47.902Z,6.60
2024-02-07T14:39:15.150Z,6.88
2024-02-07T14:41:42.305Z,5.82
2024-02-07T14:44:09.578Z,5.60
2024-02-07T14:46:36.957Z,6.47
2024-02-07T14:49:05.707Z,5.20
2024-02-07T14:51:33.413Z,7.00
2024-02-07T14:54:00.741Z,7.43
2024-02-07T14:56:28.056Z,5.85
2024-02-07T14:58:55.326Z,5.75
2024-02-07T15:01:23.780Z,6.60
2024-02-07T15:03:51.127Z,7.15
2024-02-07T15:06:18.979Z,6.78
2024-02-07T15:08:46.342Z,7.72
2024-02-07T15:11:13.588Z,8.70
2024-02-07T15:13:40.904Z,9.45
2024-02-07T15:16:08.240Z,8.25
2024-02-07T15:18:35.524Z,6.13
2024-02-07T15:21:02.752Z,6.35
2024-02-07T15:23:30.015Z,6.13
2024-02-07T15:25:57.345Z,6.50
2024-02-07T15:28:24.844Z,6.75
2024-02-07T15:30:54.643Z,6.85
2024-02-07T15:33:23.444Z,5.55
2024-02-07T15:35:52.227Z,7.05
2024-02-07T15:38:19.512Z,7.07
2024-02-07T15:40:46.838Z,7.15
2024-02-07T15:43:16.360Z,6.97
2024-02-07T15:45:44.543Z,6.78
2024-02-07T15:48:12.931Z,7.05
2024-02-07T15:50:40.388Z,7.45
2024-02-07T15:53:07.962Z,5.80
2024-02-07T15:55:38.695Z,7.97
2024-02-07T15:58:06.927Z,7.22
2024-02-07T16:00:34.377Z,5.70
2024-02-07T16:03:01.892Z,6.32
2024-02-07T16:05:29.402Z,8.48
2024-02-07T16:07:56.964Z,5.57
2024-02-07T16:10:24.333Z,6.75
2024-02-07T16:12:51.590Z,6.93
2024-02-07T16:15:18.956Z,9.23
2024-02-07T16:17:46.161Z,7.78
2024-02-07T16:20:13.548Z,6.72
2024-02-07T16:22:41.058Z,5.35
2024-02-07T16:25:08.444Z,6.88
2024-02-07T16:27:35.793Z,5.03
2024-02-07T16:30:03.242Z,4.05
2024-02-07T16:32:30.460Z,4.97
2024-02-07T16:34:57.727Z,3.92
2024-02-07T16:37:25.151Z,5.68
2024-02-07T16:39:52.401Z,4.82
2024-02-07T16:42:19.612Z,6.60
2024-02-07T16:44:46.892Z,4.85
2024-02-07T16:47:14.439Z,3.97
2024-02-07T16:49:41.771Z,4.03
2024-02-07T16:52:09.080Z,8.27
2024-02-07T16:54:36.253Z,5.53
2024-02-07T16:57:03.411Z,5.30
2024-02-07T16:59:30.732Z,3.85
2024-02-07T17:01:58.358Z,3.40
2024-02-07T17:04:25.801Z,2.60
2024-02-07T17:06:55.158Z,3.92
2024-02-07T17:09:22.441Z,2.97
2024-02-07T17:11:49.631Z,3.47
2024-02-07T17:14:16.993Z,2.08
2024-02-07T17:16:44.277Z,4.18
2024-02-07T17:19:11.453Z,2.80
2024-02-07T17:21:43.024Z,3.38
2024-02-07T17:24:10.242Z,3.17
2024-02-07T17:26:38.008Z,4.20
2024-02-07T17:29:05.382Z,4.60
2024-02-07T17:31:32.592Z,3.38
2024-02-07T17:33:59.842Z,3.08
2024-02-07T17:36:27.079Z,5.75
2024-02-07T17:38:54.316Z,3.42
2024-02-07T17:41:23.478Z,1.77
2024-02-07T17:43:51.761Z,3.22
2024-02-07T17:46:19.048Z,2.72
2024-02-07T17:48:46.195Z,3.15
2024-02-07T17:51:15.197Z,2.65
2024-02-07T17:53:42.433Z,4.45
2024-02-07T17:56:09.673Z,3.22
2024-02-07T17:58:37.080Z,2.58
2024-02-07T18:01:04.334Z,3.13
2024-02-07T18:03:31.533Z,6.28
2024-02-07T18:05:58.984Z,3.63
2024-02-07T18:08:26.539Z,2.90
2024-02-07T18:10:57.177Z,2.97
2024-02-07T18:13:24.509Z,2.85
2024-02-07T18:15:52.581Z,2.95
2024-02-07T18:18:19.928Z,2.92
2024-02-07T18:20:47.460Z,2.22
2024-02-07T18:23:14.708Z,3.80
2024-02-07T18:25:41.944Z,3.67
2024-02-07T18:28:09.268Z,2.95
2024-02-07T18:30:36.388Z,4.85
2024-02-07T18:33:05.387Z,4.13
2024-02-07T18:35:32.863Z,4.30
2024-02-07T18:38:00.256Z,3.28
2024-02-07T18:40:27.563Z,2.58
2024-02-07T18:42:54.778Z,3.00
2024-02-07T18:45:21.973Z,6.07
2024-02-07T18:47:49.166Z,4.97
2024-02-07T18:50:16.568Z,4.25
2024-02-07T18:52:43.792Z,2.63
2024-02-07T18:55:11.086Z,5.00
2024-02-07T18:57:39.645Z,6.07
2024-02-07T19:00:09.988Z,4.07
2024-02-07T19:02:37.244Z,4.78
2024-02-07T19:05:06.097Z,3.55
2024-02-07T19:07:33.642Z,3.17
2024-02-07T19:10:00.820Z,4.78
2024-02-07T19:12:28.732Z,3.38
2024-02-07T19:14:55.959Z,3.58
2024-02-07T19:17:23.218Z,3.28
2024-02-07T19:19:50.561Z,3.53
2024-02-07T19:22:17.756Z,3.72
2024-02-07T19:24:44.888Z,5.35
2024-02-07T19:27:12.180Z,5.15
2024-02-07T19:29:39.549Z,4.22
2024-02-07T19:32:06.808Z,4.95
2024-02-07T19:34:34.156Z,6.60
2024-02-07T19:37:01.563Z,6.47
2024-02-07T19:39:28.689Z,3.38
2024-02-07T19:41:55.913Z,4.68
2024-02-07T19:44:23.146Z,4.82
2024-02-07T19:46:50.445Z,3.25
2024-02-07T19:49:17.889Z,4.38
2024-02-07T19:51:45.382Z,4.90
2024-02-07T19:54:12.570Z,5.28
2024-02-07T19:56:39.880Z,4.68
2024-02-07T19:59:07.161Z,6.05
2024-02-07T20:01:34.449Z,4.10
2024-02-07T20:04:01.755Z,5.32
2024-02-07T20:06:30.732Z,3.95
2024-02-07T20:08:58.063Z,5.82
2024-02-07T20:11:25.319Z,5.63
2024-02-07T20:13:52.673Z,4.38
2024-02-07T20:16:19.903Z,5.75
2024-02-07T20:18:48.949Z,4.78
2024-02-07T20:21:17.469Z,3.92
2024-02-07T20:23:44.649Z,4.65
2024-02-07T20:26:12.053Z,4.53
2024-02-07T20:28:41.319Z,6.20
2024-02-07T20:31:09.095Z,4.97
2024-02-07T20:33:36.345Z,5.50
2024-02-07T20:36:03.728Z,3.75
2024-02-07T20:38:30.993Z,5.90
2024-02-07T20:40:58.330Z,4.78
2024-02-07T20:43:26.147Z,3.95
2024-02-07T20:45:53.379Z,3.80
2024-02-07T20:48:20.802Z,3.20
2024-02-07T20:50:49.375Z,4.22
2024-02-07T20:53:18.137Z,5.38
2024-02-07T20:55:46.283Z,3.42
2024-02-07T20:58:13.517Z,3.20
2024-02-07T21:00:40.762Z,4.47
2024-02-07T21:03:08.527Z,4.13
2024-02-07T21:05:35.761Z,4.95
2024-02-07T21:08:03.093Z,4.43
2024-02-07T21:10:30.512Z,3.00
2024-02-07T21:12:58.773Z,4.03
2024-02-07T21:15:26.073Z,3.47
2024-02-07T21:17:53.601Z,3.45
2024-02-07T21:20:21.044Z,2.58
2024-02-07T21:22:48.741Z,3.40
2024-02-07T21:25:18.409Z,2.40
2024-02-07T21:27:45.554Z,3.95
2024-02-07T21:30:14.423Z,3.42
2024-02-07T21:32:41.731Z,5.78
2024-02-07T21:35:09.741Z,3.60
2024-02-07T21:37:37.284Z,2.83
2024-02-07T21:40:04.967Z,3.63
2024-02-07T21:42:32.276Z,2.33
2024-02-07T21:45:00.856Z,3.03
2024-02-07T21:47:29.365Z,3.28
2024-02-07T21:49:56.666Z,3.95
2024-02-07T21:52:24.043Z,3.53
2024-02-07T21:54:51.309Z,3.30
2024-02-07T21:57:18.550Z,4.68
2024-02-07T21:59:45.783Z,4.78
2024-02-07T22:02:14.116Z,2.92
2024-02-07T22:04:41.532Z,3.55
2024-02-07T22:07:08.773Z,3.47
2024-02-07T22:09:36.081Z,3.30
2024-02-07T22:12:06.864Z,2.88
2024-02-07T22:14:35.398Z,3.53
2024-02-07T22:17:02.762Z,4.63
2024-02-07T22:19:30.181Z,3.75
2024-02-07T22:21:57.412Z,4.22
2024-02-07T22:24:24.620Z,3.75
2024-02-07T22:26:51.789Z,3.70
2024-02-07T22:29:18.939Z,6.05
2024-02-07T22:31:46.242Z,4.82
2024-02-07T22:34:13.713Z,4.35
2024-02-07T22:36:40.980Z,4.88
2024-02-07T22:39:08.200Z,4.10
2024-02-07T22:41:35.598Z,4.25
2024-02-07T22:44:02.813Z,4.95
2024-02-07T22:46:30.110Z,4.55
2024-02-07T22:48:57.506Z,3.75
2024-02-07T22:51:24.717Z,5.47
2024-02-07T22:53:51.923Z,4.88
2024-02-07T22:56:22.960Z,5.35
2024-02-07T22:58:50.277Z,5.07
2024-02-07T23:01:17.563Z,4.15
2024-02-07T23:03:44.876Z,4.82
2024-02-07T23:06:12.166Z,3.83
2024-02-07T23:08:39.459Z,4.38
2024-02-07T23:11:06.841Z,4.85
2024-02-07T23:13:34.455Z,5.97
2024-02-07T23:16:01.935Z,5.35
2024-02-07T23:18:29.285Z,6.07
2024-02-07T23:20:56.532Z,5.45
2024-02-07T23:23:23.777Z,5.43
2024-02-07T23:25:50.990Z,5.15
2024-02-07T23:28:18.159Z,4.63
2024-02-07T23:30:45.443Z,5.55
2024-02-07T23:33:17.357Z,4.30
2024-02-07T23:35:45.184Z,6.88
2024-02-07T23:38:12.763Z,5.70
2024-02-07T23:40:40.021Z,5.63
2024-02-07T23:43:07.909Z,5.85
2024-02-07T23:45:35.607Z,5.97
2024-02-07T23:48:02.880Z,5.35
2024-02-07T23:50:30.167Z,5.10
2024-02-07T23:52:57.431Z,5.47
2024-02-07T23:55:24.632Z,6.00
2024-02-07T23:57:51.836Z,6.13
